Sainte-Anne-De-Beaupre, Canada
Current Conditions -  °F | °C
As of 9:00 AM on Thursday 30 Oct 2014 (Local Time) from CYQB Reporting Station
Scattered Clouds Scattered Clouds  
Wind Chill:   Ceiling: Unl
Heat Index:   Visibility: 30mi
Dew Point:   Wind: 9mph
Humidity: 81%   Direction: 230°SW
Pressure: 29.89"   Gusts: NA
Location:  47.02°N, 70.93°W
Report Text: CYQB 301300Z 23008KT 30SM SCT025 SCT120 05/02 A2989 RMK SC3AC1 AC TR SLP123
Loading
Personal Weather Stations






























Interactive Weather Map
Tropical Storm Tracking
New forecast layout! Learn more

10-Day Weather Forecast

Advertisements
Track Severe Weather on mobile